createdAt,value
2023-07-15T00:00:23.403Z,19.20
2023-07-15T00:02:52.374Z,19.20
2023-07-15T00:05:36.324Z,19.30
2023-07-15T00:08:07.702Z,19.30
2023-07-15T00:10:38.742Z,19.30
2023-07-15T00:13:13.120Z,19.30
2023-07-15T00:15:42.156Z,19.30
2023-07-15T00:18:10.804Z,19.30
2023-07-15T00:20:38.484Z,19.30
2023-07-15T00:23:26.509Z,19.40
2023-07-15T00:25:57.797Z,19.40
2023-07-15T00:28:25.831Z,19.40
2023-07-15T00:30:56.316Z,19.40
2023-07-15T00:33:24.008Z,19.40
2023-07-15T00:35:51.146Z,19.40
2023-07-15T00:38:18.307Z,19.40
2023-07-15T00:40:47.839Z,19.40
2023-07-15T00:43:53.871Z,19.50
2023-07-15T00:46:29.513Z,19.40
2023-07-15T00:49:15.852Z,19.50
2023-07-15T00:51:48.885Z,19.50
2023-07-15T00:54:16.469Z,19.50
2023-07-15T00:56:48.223Z,19.50
2023-07-15T00:59:17.392Z,19.50
2023-07-15T01:01:47.515Z,19.50
2023-07-15T01:04:15.012Z,19.60
2023-07-15T01:06:46.697Z,19.60
2023-07-15T01:09:14.945Z,19.60
2023-07-15T01:11:42.364Z,19.60
2023-07-15T01:14:13.702Z,19.60
2023-07-15T01:16:41.998Z,19.60
2023-07-15T01:19:10.193Z,19.60
2023-07-15T01:21:38.140Z,19.50
2023-07-15T01:24:07.512Z,19.60
2023-07-15T01:26:35.107Z,19.60
2023-07-15T01:29:02.201Z,19.60
2023-07-15T01:31:29.553Z,19.60
2023-07-15T01:33:56.956Z,19.60
2023-07-15T01:36:25.831Z,19.60
2023-07-15T01:38:53.592Z,19.60
2023-07-15T01:41:21.730Z,19.60
2023-07-15T01:43:49.010Z,19.50
2023-07-15T01:46:16.367Z,19.60
2023-07-15T01:48:43.786Z,19.60
2023-07-15T01:51:11.609Z,19.60
2023-07-15T01:53:38.682Z,19.50
2023-07-15T01:56:06.825Z,19.60
2023-07-15T01:58:34.311Z,19.50
2023-07-15T02:01:01.552Z,19.60
2023-07-15T02:03:29.371Z,19.50
2023-07-15T02:05:56.724Z,19.50
2023-07-15T02:08:23.958Z,19.50
2023-07-15T02:10:51.452Z,19.50
2023-07-15T02:13:18.711Z,19.40
2023-07-15T02:15:46.096Z,19.30
2023-07-15T02:18:13.320Z,19.30
2023-07-15T02:20:40.518Z,19.20
2023-07-15T02:23:10.697Z,19.20
2023-07-15T02:25:38.268Z,19.10
2023-07-15T02:28:06.642Z,19.10
2023-07-15T02:30:33.929Z,19.10
2023-07-15T02:33:01.345Z,19.10
2023-07-15T02:35:29.682Z,19.10
2023-07-15T02:37:58.031Z,19.10
2023-07-15T02:40:27.084Z,19.10
2023-07-15T02:42:54.339Z,19.10
2023-07-15T02:45:21.500Z,19.10
2023-07-15T02:47:49.656Z,19.10
2023-07-15T02:50:17.146Z,19.00
2023-07-15T02:52:44.369Z,19.00
2023-07-15T02:55:11.626Z,18.90
2023-07-15T02:57:38.818Z,18.90
2023-07-15T03:00:16.649Z,18.90
2023-07-15T03:02:46.191Z,18.80
2023-07-15T03:05:13.446Z,18.80
2023-07-15T03:07:46.173Z,18.80
2023-07-15T03:10:14.776Z,18.80
2023-07-15T03:12:44.005Z,18.80
2023-07-15T03:15:11.390Z,18.80
2023-07-15T03:17:38.630Z,18.80
2023-07-15T03:20:22.088Z,18.70
2023-07-15T03:22:51.395Z,18.70
2023-07-15T03:25:22.186Z,18.70
2023-07-15T03:27:50.598Z,18.70
2023-07-15T03:30:19.417Z,18.70
2023-07-15T03:32:47.808Z,18.70
2023-07-15T03:35:16.547Z,18.60
2023-07-15T03:37:45.776Z,18.50
2023-07-15T03:40:13.926Z,18.50
2023-07-15T03:42:42.793Z,18.50
2023-07-15T03:45:10.757Z,18.40
2023-07-15T03:47:39.332Z,18.40
2023-07-15T03:50:10.579Z,18.40
2023-07-15T03:52:38.582Z,18.30
2023-07-15T03:55:07.157Z,18.30
2023-07-15T03:57:34.713Z,18.30
2023-07-15T04:00:02.174Z,18.40
2023-07-15T04:02:40.703Z,18.40
2023-07-15T04:05:08.378Z,18.40
2023-07-15T04:07:35.626Z,18.40
2023-07-15T04:10:03.140Z,18.40
2023-07-15T04:12:30.194Z,18.40
2023-07-15T04:14:57.334Z,18.40
2023-07-15T04:17:24.806Z,18.40
2023-07-15T04:19:52.037Z,18.30
2023-07-15T04:22:19.205Z,18.30
2023-07-15T04:24:46.317Z,18.40
2023-07-15T04:27:13.519Z,18.40
2023-07-15T04:29:40.610Z,18.40
2023-07-15T04:32:08.139Z,18.40
2023-07-15T04:34:35.288Z,18.40
2023-07-15T04:37:02.523Z,18.50
2023-07-15T04:39:29.766Z,18.50
2023-07-15T04:41:57.009Z,18.60
2023-07-15T04:44:24.156Z,18.60
2023-07-15T04:46:51.315Z,18.70
2023-07-15T04:49:20.002Z,18.70
2023-07-15T04:51:47.234Z,18.80
2023-07-15T04:54:14.347Z,18.80
2023-07-15T04:56:41.491Z,18.80
2023-07-15T04:59:09.311Z,18.80
2023-07-15T05:01:36.676Z,18.80
2023-07-15T05:04:05.128Z,18.90
2023-07-15T05:06:32.741Z,19.00
2023-07-15T05:08:59.926Z,19.00
2023-07-15T05:11:27.969Z,19.00
2023-07-15T05:13:55.245Z,19.10
2023-07-15T05:16:22.608Z,19.10
2023-07-15T05:18:49.905Z,19.20
2023-07-15T05:21:17.741Z,19.20
2023-07-15T05:23:45.072Z,19.30
2023-07-15T05:26:12.171Z,19.30
2023-07-15T05:28:39.558Z,19.40
2023-07-15T05:31:07.873Z,19.50
2023-07-15T05:33:35.174Z,19.70
2023-07-15T05:36:03.462Z,19.70
2023-07-15T05:38:30.755Z,19.80
2023-07-15T05:40:58.081Z,19.90
2023-07-15T05:43:26.176Z,19.90
2023-07-15T05:45:53.404Z,19.90
2023-07-15T05:48:20.552Z,20.00
2023-07-15T05:50:47.956Z,20.10
2023-07-15T05:53:15.062Z,20.10
2023-07-15T05:55:42.176Z,20.30
2023-07-15T05:58:11.330Z,20.30
2023-07-15T06:00:42.979Z,20.40
2023-07-15T06:03:10.661Z,20.60
2023-07-15T06:05:38.215Z,20.80
2023-07-15T06:08:05.709Z,20.90
2023-07-15T06:10:32.964Z,21.00
2023-07-15T06:13:00.151Z,21.10
2023-07-15T06:15:27.646Z,21.20
2023-07-15T06:17:58.597Z,21.30
2023-07-15T06:20:25.933Z,21.50
2023-07-15T06:22:53.094Z,21.70
2023-07-15T06:25:20.350Z,21.80
2023-07-15T06:27:47.880Z,21.90
2023-07-15T06:30:15.095Z,22.00
2023-07-15T06:32:42.237Z,22.10
2023-07-15T06:35:09.705Z,22.30
2023-07-15T06:37:37.438Z,22.50
2023-07-15T06:40:06.199Z,22.70
2023-07-15T06:42:33.367Z,22.80
2023-07-15T06:45:00.613Z,23.00
2023-07-15T06:47:27.855Z,23.20
2023-07-15T06:49:55.140Z,23.40
2023-07-15T06:52:22.380Z,23.50
2023-07-15T06:54:53.314Z,23.70
2023-07-15T06:57:20.580Z,23.80
2023-07-15T06:59:48.808Z,23.80
2023-07-15T07:02:17.244Z,23.90
2023-07-15T07:04:44.319Z,24.10
2023-07-15T07:07:11.438Z,24.10
2023-07-15T07:09:38.568Z,24.30
2023-07-15T07:12:06.243Z,24.50
2023-07-15T07:14:34.903Z,24.60
2023-07-15T07:17:02.578Z,24.70
2023-07-15T07:19:29.879Z,25.00
2023-07-15T07:21:57.054Z,25.20
2023-07-15T07:24:24.262Z,25.30
2023-07-15T07:26:52.289Z,25.40
2023-07-15T07:29:20.529Z,25.40
2023-07-15T07:31:47.812Z,25.40
2023-07-15T07:34:15.102Z,25.50
2023-07-15T07:36:42.273Z,25.60
2023-07-15T07:39:09.545Z,25.70
2023-07-15T07:41:36.616Z,25.70
2023-07-15T07:44:03.780Z,25.70
2023-07-15T07:46:31.362Z,25.90
2023-07-15T07:48:58.745Z,25.80
2023-07-15T07:51:25.922Z,25.80
2023-07-15T07:53:53.515Z,25.70
2023-07-15T07:56:20.672Z,25.70
2023-07-15T07:58:48.040Z,25.80
2023-07-15T08:01:16.044Z,26.00
2023-07-15T08:03:43.712Z,26.00
2023-07-15T08:06:13.027Z,26.00
2023-07-15T08:08:40.186Z,26.10
2023-07-15T08:11:07.336Z,26.30
2023-07-15T08:13:34.515Z,26.50
2023-07-15T08:16:02.741Z,26.70
2023-07-15T08:18:29.993Z,26.90
2023-07-15T08:20:57.170Z,27.10
2023-07-15T08:23:24.293Z,27.00
2023-07-15T08:25:53.530Z,27.10
2023-07-15T08:28:20.650Z,26.90
2023-07-15T08:30:47.944Z,27.10
2023-07-15T08:33:15.097Z,27.30
2023-07-15T08:35:44.726Z,27.40
2023-07-15T08:38:11.869Z,27.40
2023-07-15T08:40:39.263Z,27.60
2023-07-15T08:43:06.617Z,27.50
2023-07-15T08:45:36.750Z,27.50
2023-07-15T08:48:04.565Z,27.50
2023-07-15T08:50:34.738Z,27.60
2023-07-15T08:53:03.022Z,27.70
2023-07-15T08:55:31.370Z,27.80
2023-07-15T08:58:02.149Z,27.80
2023-07-15T09:00:29.353Z,27.70
2023-07-15T09:02:57.082Z,27.90
2023-07-15T09:05:24.340Z,27.80
2023-07-15T09:07:56.264Z,27.90
2023-07-15T09:10:24.222Z,27.90
2023-07-15T09:12:56.384Z,27.70
2023-07-15T09:15:23.806Z,27.60
2023-07-15T09:17:57.605Z,27.60
2023-07-15T09:20:27.860Z,27.40
2023-07-15T09:23:00.617Z,27.30
2023-07-15T09:25:28.803Z,27.10
2023-07-15T09:27:56.338Z,27.10
2023-07-15T09:30:24.016Z,27.20
2023-07-15T09:32:51.558Z,27.20
2023-07-15T09:35:21.843Z,27.20
2023-07-15T09:37:49.852Z,27.10
2023-07-15T09:40:17.389Z,27.30
2023-07-15T09:42:56.548Z,27.30
2023-07-15T09:45:39.068Z,27.10
2023-07-15T09:48:09.517Z,27.40
2023-07-15T09:50:40.542Z,27.50
2023-07-15T09:53:08.395Z,27.40
2023-07-15T09:55:44.197Z,27.50
2023-07-15T09:58:26.195Z,27.40
2023-07-15T10:01:01.582Z,27.70
2023-07-15T10:03:35.011Z,28.20
2023-07-15T10:06:02.390Z,28.20
2023-07-15T10:08:30.241Z,28.20
2023-07-15T10:10:57.453Z,28.40
2023-07-15T10:13:26.011Z,28.30
2023-07-15T10:15:53.525Z,28.40
2023-07-15T10:18:22.004Z,28.20
2023-07-15T10:21:04.911Z,28.50
2023-07-15T10:23:34.315Z,28.40
2023-07-15T10:26:11.369Z,28.20
2023-07-15T10:28:40.977Z,28.00
2023-07-15T10:31:13.069Z,27.90
2023-07-15T10:34:06.784Z,27.90
2023-07-15T10:36:36.902Z,28.10
2023-07-15T10:39:16.330Z,28.60
2023-07-15T10:41:53.204Z,28.70
2023-07-15T10:44:27.500Z,28.50
2023-07-15T10:47:00.996Z,28.40
2023-07-15T10:49:28.903Z,28.30
2023-07-15T10:51:56.582Z,28.60
2023-07-15T10:54:28.650Z,28.60
2023-07-15T10:56:56.120Z,28.70
2023-07-15T10:59:36.159Z,28.60
2023-07-15T11:02:03.935Z,28.40
2023-07-15T11:04:31.619Z,28.20
2023-07-15T11:07:04.714Z,28.10
2023-07-15T11:09:32.835Z,28.20
2023-07-15T11:12:00.505Z,28.10
2023-07-15T11:14:30.112Z,28.10
2023-07-15T11:17:00.399Z,28.60
2023-07-15T11:19:29.930Z,28.80
2023-07-15T11:21:59.091Z,28.50
2023-07-15T11:24:29.605Z,28.50
2023-07-15T11:27:01.719Z,28.40
2023-07-15T11:29:30.074Z,28.50
2023-07-15T11:31:58.670Z,28.50
2023-07-15T11:34:28.459Z,28.30
2023-07-15T11:36:56.709Z,28.10
2023-07-15T11:39:25.212Z,27.80
2023-07-15T11:41:52.748Z,28.00
2023-07-15T11:44:24.208Z,27.80
2023-07-15T11:46:51.739Z,27.80
2023-07-15T11:49:23.216Z,27.60
2023-07-15T11:51:55.830Z,27.50
2023-07-15T11:54:23.268Z,27.30
2023-07-15T11:56:58.373Z,26.90
2023-07-15T11:59:30.839Z,26.80
2023-07-15T12:02:05.638Z,26.50
2023-07-15T12:04:33.126Z,26.40
2023-07-15T12:07:05.344Z,26.50
2023-07-15T12:09:33.013Z,26.70
2023-07-15T12:12:00.695Z,26.90
2023-07-15T12:14:31.419Z,27.10
2023-07-15T12:17:01.252Z,27.10
2023-07-15T12:19:30.857Z,27.20
2023-07-15T12:21:58.004Z,27.30
2023-07-15T12:24:25.082Z,27.40
2023-07-15T12:26:52.268Z,27.60
2023-07-15T12:29:19.362Z,27.70
2023-07-15T12:31:47.507Z,27.30
2023-07-15T12:34:14.743Z,27.00
2023-07-15T12:36:42.315Z,27.00
2023-07-15T12:39:09.412Z,27.00
2023-07-15T12:41:36.551Z,26.80
2023-07-15T12:44:04.294Z,26.90
2023-07-15T12:46:31.636Z,27.00
2023-07-15T12:48:58.839Z,26.90
2023-07-15T12:51:26.041Z,27.00
2023-07-15T12:53:53.044Z,27.20
2023-07-15T12:56:22.843Z,27.40
2023-07-15T12:58:49.955Z,27.60
2023-07-15T13:01:17.159Z,27.80
2023-07-15T13:03:44.418Z,28.00
2023-07-15T13:06:11.699Z,27.70
2023-07-15T13:08:38.826Z,27.60
2023-07-15T13:11:07.794Z,27.50
2023-07-15T13:13:35.007Z,27.30
2023-07-15T13:16:02.167Z,27.20
2023-07-15T13:18:29.295Z,27.50
2023-07-15T13:20:56.457Z,27.80
2023-07-15T13:23:23.912Z,28.00
2023-07-15T13:25:51.105Z,28.10
2023-07-15T13:28:20.063Z,28.30
2023-07-15T13:30:48.460Z,28.50
2023-07-15T13:33:15.644Z,28.30
2023-07-15T13:35:42.821Z,28.30
2023-07-15T13:38:09.969Z,28.40
2023-07-15T13:40:37.159Z,28.40
2023-07-15T13:43:04.296Z,28.30
2023-07-15T13:45:31.916Z,28.40
2023-07-15T13:47:59.049Z,28.30
2023-07-15T13:50:26.225Z,28.40
2023-07-15T13:52:53.351Z,28.30
2023-07-15T13:55:21.483Z,28.30
2023-07-15T13:57:48.674Z,28.40
2023-07-15T14:00:16.624Z,28.60
2023-07-15T14:02:43.757Z,28.80
2023-07-15T14:05:11.324Z,28.80
2023-07-15T14:07:39.391Z,28.60
2023-07-15T14:10:07.418Z,28.60
2023-07-15T14:12:34.804Z,28.70
2023-07-15T14:15:02.408Z,28.90
2023-07-15T14:17:29.714Z,28.80
2023-07-15T14:19:57.022Z,28.80
2023-07-15T14:22:38.554Z,28.90
2023-07-15T14:25:11.576Z,28.90
2023-07-15T14:27:38.822Z,28.80
2023-07-15T14:30:07.407Z,28.60
2023-07-15T14:32:34.678Z,28.40
2023-07-15T14:35:01.911Z,28.40
2023-07-15T14:37:29.183Z,28.50
2023-07-15T14:39:56.410Z,28.70
2023-07-15T14:42:23.569Z,28.90
2023-07-15T14:44:50.801Z,28.90
2023-07-15T14:47:17.990Z,28.80
2023-07-15T14:49:45.137Z,28.80
2023-07-15T14:52:12.381Z,29.00
2023-07-15T14:54:39.516Z,29.20
2023-07-15T14:57:06.678Z,29.20
2023-07-15T14:59:33.905Z,29.20
2023-07-15T15:02:01.096Z,29.20
2023-07-15T15:04:28.317Z,29.20
2023-07-15T15:06:55.526Z,29.30
2023-07-15T15:09:24.083Z,29.10
2023-07-15T15:11:51.572Z,29.00
2023-07-15T15:14:25.123Z,28.90
2023-07-15T15:16:52.422Z,28.90
2023-07-15T15:19:19.789Z,28.90
2023-07-15T15:21:46.896Z,29.10
2023-07-15T15:24:14.030Z,29.20
2023-07-15T15:26:41.918Z,29.20
2023-07-15T15:29:09.052Z,29.20
2023-07-15T15:31:36.323Z,29.20
2023-07-15T15:34:03.483Z,29.00
2023-07-15T15:36:30.704Z,29.00
2023-07-15T15:38:58.762Z,28.90
2023-07-15T15:41:26.854Z,28.90
2023-07-15T15:43:54.170Z,29.00
2023-07-15T15:46:21.398Z,28.70
2023-07-15T15:48:48.508Z,28.30
2023-07-15T15:51:15.901Z,28.30
2023-07-15T15:54:02.164Z,28.20
2023-07-15T15:56:33.139Z,28.30
2023-07-15T15:59:00.384Z,28.20
2023-07-15T16:01:27.517Z,28.20
2023-07-15T16:03:54.719Z,28.20
2023-07-15T16:06:22.427Z,28.20
2023-07-15T16:08:52.015Z,28.20
2023-07-15T16:11:19.629Z,28.20
2023-07-15T16:13:46.896Z,28.20
2023-07-15T16:16:14.063Z,27.80
2023-07-15T16:18:41.402Z,27.70
2023-07-15T16:21:08.691Z,27.70
2023-07-15T16:23:35.794Z,28.00
2023-07-15T16:26:04.025Z,28.20
2023-07-15T16:28:31.173Z,28.50
2023-07-15T16:30:58.306Z,28.70
2023-07-15T16:33:25.498Z,28.80
2023-07-15T16:35:53.210Z,28.80
2023-07-15T16:38:20.402Z,28.70
2023-07-15T16:40:47.580Z,28.40
2023-07-15T16:43:14.692Z,28.10
2023-07-15T16:45:41.889Z,27.80
2023-07-15T16:48:08.997Z,27.60
2023-07-15T16:50:36.207Z,27.30
2023-07-15T16:53:04.127Z,26.90
2023-07-15T16:55:31.196Z,26.20
2023-07-15T16:57:58.263Z,24.60
2023-07-15T17:00:25.535Z,23.30
2023-07-15T17:02:52.658Z,22.50
2023-07-15T17:05:19.843Z,21.80
2023-07-15T17:07:47.000Z,21.60
2023-07-15T17:10:14.143Z,21.40
2023-07-15T17:12:41.349Z,21.30
2023-07-15T17:15:08.992Z,21.20
2023-07-15T17:17:36.238Z,21.20
2023-07-15T17:20:05.107Z,21.10
2023-07-15T17:22:32.380Z,21.00
2023-07-15T17:24:59.586Z,20.90
2023-07-15T17:27:26.781Z,20.60
2023-07-15T17:29:53.936Z,20.60
2023-07-15T17:32:21.087Z,20.50
2023-07-15T17:34:49.146Z,20.40
2023-07-15T17:37:16.392Z,20.30
2023-07-15T17:39:44.530Z,20.20
2023-07-15T17:42:11.738Z,20.30
2023-07-15T17:44:38.904Z,20.10
2023-07-15T17:47:06.397Z,20.10
2023-07-15T17:49:33.567Z,20.10
2023-07-15T17:52:00.766Z,20.20
2023-07-15T17:54:29.091Z,20.20
2023-07-15T17:56:56.571Z,20.30
2023-07-15T17:59:23.883Z,20.40
2023-07-15T18:01:51.087Z,20.40
2023-07-15T18:04:18.350Z,20.40
2023-07-15T18:06:45.466Z,20.30
2023-07-15T18:09:12.921Z,20.30
2023-07-15T18:11:41.201Z,20.30
2023-07-15T18:14:08.479Z,20.30
2023-07-15T18:16:35.731Z,20.30
2023-07-15T18:19:03.160Z,20.30
2023-07-15T18:21:30.383Z,20.30
2023-07-15T18:23:57.613Z,20.40
2023-07-15T18:26:25.130Z,20.40
2023-07-15T18:28:52.260Z,20.50
2023-07-15T18:31:19.886Z,20.50
2023-07-15T18:33:47.336Z,20.40
2023-07-15T18:36:14.609Z,20.50
2023-07-15T18:38:41.833Z,20.50
2023-07-15T18:41:08.941Z,20.40
2023-07-15T18:43:36.120Z,20.40
2023-07-15T18:46:03.471Z,20.30
2023-07-15T18:48:30.638Z,20.30
2023-07-15T18:50:57.741Z,20.20
2023-07-15T18:53:24.839Z,20.20
2023-07-15T18:55:52.002Z,20.10
2023-07-15T18:58:19.272Z,20.10
2023-07-15T19:00:46.340Z,20.00
2023-07-15T19:03:15.559Z,20.10
2023-07-15T19:05:43.060Z,20.10
2023-07-15T19:08:11.176Z,20.10
2023-07-15T19:10:38.332Z,20.00
2023-07-15T19:13:05.543Z,20.00
2023-07-15T19:15:32.727Z,19.90
2023-07-15T19:18:00.102Z,19.90
2023-07-15T19:20:27.372Z,19.90
2023-07-15T19:22:54.574Z,19.80
2023-07-15T19:25:21.713Z,19.80
2023-07-15T19:27:48.802Z,19.80
2023-07-15T19:30:16.076Z,19.70
2023-07-15T19:32:43.300Z,19.50
2023-07-15T19:35:10.424Z,19.50
2023-07-15T19:37:37.499Z,19.50
2023-07-15T19:40:05.645Z,19.50
2023-07-15T19:42:32.787Z,19.50
2023-07-15T19:45:00.001Z,19.50
2023-07-15T19:47:27.306Z,19.50
2023-07-15T19:49:54.409Z,19.50
2023-07-15T19:52:21.520Z,19.40
2023-07-15T19:54:48.585Z,19.40
2023-07-15T19:57:15.872Z,19.30
2023-07-15T19:59:42.995Z,19.30
2023-07-15T20:02:10.133Z,19.30
2023-07-15T20:04:37.316Z,19.20
2023-07-15T20:07:04.823Z,19.20
2023-07-15T20:09:31.911Z,19.20
2023-07-15T20:11:59.172Z,19.10
2023-07-15T20:14:26.345Z,19.10
2023-07-15T20:16:54.645Z,19.00
2023-07-15T20:19:21.667Z,19.00
2023-07-15T20:21:48.810Z,19.00
2023-07-15T20:24:15.931Z,18.90
2023-07-15T20:26:43.165Z,18.90
2023-07-15T20:29:10.269Z,18.80
2023-07-15T20:31:37.401Z,18.80
2023-07-15T20:34:04.962Z,18.80
2023-07-15T20:36:32.221Z,18.80
2023-07-15T20:38:59.421Z,18.80
2023-07-15T20:41:26.730Z,18.80
2023-07-15T20:43:53.872Z,18.70
2023-07-15T20:46:21.276Z,18.70
2023-07-15T20:48:48.470Z,18.70
2023-07-15T20:51:16.549Z,18.60
2023-07-15T20:53:43.678Z,18.70
2023-07-15T20:56:10.920Z,18.60
2023-07-15T20:58:38.085Z,18.50
2023-07-15T21:01:05.262Z,18.50
2023-07-15T21:03:32.483Z,18.50
2023-07-15T21:06:01.715Z,18.50
2023-07-15T21:08:29.336Z,18.50
2023-07-15T21:10:58.285Z,18.40
2023-07-15T21:13:26.270Z,18.40
2023-07-15T21:15:53.452Z,18.40
2023-07-15T21:18:22.950Z,18.40
2023-07-15T21:20:51.419Z,18.30
2023-07-15T21:23:18.903Z,18.30
2023-07-15T21:25:46.569Z,18.20
2023-07-15T21:28:13.736Z,18.10
2023-07-15T21:30:45.348Z,18.10
2023-07-15T21:33:12.608Z,18.10
2023-07-15T21:35:40.609Z,18.10
2023-07-15T21:38:07.648Z,18.00
2023-07-15T21:40:34.759Z,18.00
2023-07-15T21:43:01.868Z,18.00
2023-07-15T21:45:30.081Z,18.10
2023-07-15T21:47:57.284Z,18.10
2023-07-15T21:50:24.483Z,18.00
2023-07-15T21:52:51.535Z,18.00
2023-07-15T21:55:18.637Z,18.00
2023-07-15T21:57:45.812Z,18.00
2023-07-15T22:00:15.766Z,17.90
2023-07-15T22:02:43.776Z,18.00
2023-07-15T22:05:11.767Z,18.00
2023-07-15T22:07:40.270Z,18.00
2023-07-15T22:10:08.382Z,18.00
2023-07-15T22:12:36.100Z,18.00
2023-07-15T22:15:04.620Z,18.00
2023-07-15T22:17:31.788Z,18.00
2023-07-15T22:19:58.945Z,18.00
2023-07-15T22:22:26.110Z,18.00
2023-07-15T22:24:53.342Z,18.00
2023-07-15T22:27:20.438Z,18.00
2023-07-15T22:29:47.427Z,18.00
2023-07-15T22:32:14.494Z,18.00
2023-07-15T22:34:41.637Z,17.90
2023-07-15T22:37:10.830Z,17.90
2023-07-15T22:39:37.984Z,17.90
2023-07-15T22:42:05.488Z,17.80
2023-07-15T22:44:32.566Z,17.70
2023-07-15T22:47:01.820Z,17.70
2023-07-15T22:49:30.160Z,17.60
2023-07-15T22:51:57.804Z,17.60
2023-07-15T22:54:24.917Z,17.50
2023-07-15T22:56:51.980Z,17.50
2023-07-15T22:59:19.055Z,17.40
2023-07-15T23:01:46.295Z,17.30
2023-07-15T23:04:13.344Z,17.30
2023-07-15T23:06:40.517Z,17.30
2023-07-15T23:09:07.891Z,17.20
2023-07-15T23:11:35.025Z,17.20
2023-07-15T23:14:02.188Z,17.20
2023-07-15T23:16:29.314Z,17.10
2023-07-15T23:18:56.472Z,17.10
2023-07-15T23:21:23.665Z,17.00
2023-07-15T23:23:50.840Z,17.00
2023-07-15T23:26:19.181Z,17.00
2023-07-15T23:28:46.334Z,17.00
2023-07-15T23:31:13.396Z,17.00
2023-07-15T23:33:40.792Z,16.90
2023-07-15T23:36:07.977Z,16.90
2023-07-15T23:38:35.373Z,16.80
2023-07-15T23:41:03.804Z,16.80
2023-07-15T23:43:31.755Z,16.80
2023-07-15T23:45:58.864Z,16.70
2023-07-15T23:48:25.931Z,16.70
2023-07-15T23:50:53.035Z,16.70
2023-07-15T23:53:20.033Z,16.60
2023-07-15T23:55:47.121Z,16.60
2023-07-15T23:58:15.369Z,16.60
